createdAt,value
2022-10-22T00:00:08.537Z,946.73
2022-10-22T00:00:18.530Z,946.74
2022-10-22T00:00:28.528Z,946.74
2022-10-22T00:00:38.532Z,946.73
2022-10-22T00:00:48.533Z,946.73
2022-10-22T00:00:58.537Z,946.73
2022-10-22T00:01:08.531Z,946.73
2022-10-22T00:01:18.534Z,946.73
2022-10-22T00:01:28.536Z,946.73
2022-10-22T00:01:38.535Z,946.73
2022-10-22T00:01:48.537Z,946.73
2022-10-22T00:01:58.567Z,946.74
2022-10-22T00:02:08.537Z,946.74
2022-10-22T00:02:18.574Z,946.74
2022-10-22T00:02:28.577Z,946.73
2022-10-22T00:02:38.583Z,946.73
2022-10-22T00:02:48.578Z,946.73
2022-10-22T00:02:58.617Z,946.73
2022-10-22T00:03:08.627Z,946.74
2022-10-22T00:03:18.546Z,946.74
2022-10-22T00:03:28.551Z,946.75
2022-10-22T00:03:38.550Z,946.75
2022-10-22T00:03:48.553Z,946.76
2022-10-22T00:03:58.551Z,946.76
2022-10-22T00:04:08.551Z,946.77
2022-10-22T00:04:18.554Z,946.78
2022-10-22T00:04:32.956Z,946.79
2022-10-22T00:04:39.599Z,946.80
2022-10-22T00:04:48.560Z,946.81
2022-10-22T00:04:58.564Z,946.82
2022-10-22T00:05:08.560Z,946.83
2022-10-22T00:05:18.560Z,946.84
2022-10-22T00:05:28.566Z,946.84
2022-10-22T00:05:38.560Z,946.85
2022-10-22T00:05:48.560Z,946.86
2022-10-22T00:05:58.563Z,946.86
2022-10-22T00:06:08.582Z,946.87
2022-10-22T00:06:18.564Z,946.87
2022-10-22T00:06:28.568Z,946.88
2022-10-22T00:06:38.569Z,946.88
2022-10-22T00:06:48.569Z,946.87
2022-10-22T00:06:58.588Z,946.87
2022-10-22T00:07:08.571Z,946.86
2022-10-22T00:07:18.573Z,946.87
2022-10-22T00:07:28.576Z,946.86
2022-10-22T00:07:38.916Z,946.86
2022-10-22T00:07:48.575Z,946.85
2022-10-22T00:07:58.578Z,946.85
2022-10-22T00:08:08.576Z,946.84
2022-10-22T00:08:18.579Z,946.84
2022-10-22T00:08:28.577Z,946.83
2022-10-22T00:08:38.624Z,946.83
2022-10-22T00:08:48.644Z,946.82
2022-10-22T00:08:58.607Z,946.81
2022-10-22T00:09:08.688Z,946.80
2022-10-22T00:09:18.651Z,946.80
2022-10-22T00:09:28.582Z,946.80
2022-10-22T00:09:38.584Z,946.79
2022-10-22T00:09:48.582Z,946.79
2022-10-22T00:09:58.581Z,946.78
2022-10-22T00:10:08.590Z,946.78
2022-10-22T00:10:18.586Z,946.77
2022-10-22T00:10:28.586Z,946.77
2022-10-22T00:10:38.589Z,946.77
2022-10-22T00:10:48.588Z,946.77
2022-10-22T00:10:58.589Z,946.76
2022-10-22T00:11:08.607Z,946.77
2022-10-22T00:11:18.590Z,946.77
2022-10-22T00:11:28.591Z,946.77
2022-10-22T00:11:38.592Z,946.77
2022-10-22T00:11:48.594Z,946.76
2022-10-22T00:11:58.608Z,946.76
2022-10-22T00:12:08.594Z,946.76
2022-10-22T00:12:18.597Z,946.75
2022-10-22T00:12:28.596Z,946.75
2022-10-22T00:12:38.601Z,946.75
2022-10-22T00:12:48.599Z,946.75
2022-10-22T00:12:58.598Z,946.74
2022-10-22T00:13:08.603Z,946.74
2022-10-22T00:13:18.602Z,946.74
2022-10-22T00:13:28.604Z,946.74
2022-10-22T00:13:38.668Z,946.73
2022-10-22T00:13:48.593Z,946.73
2022-10-22T00:13:58.604Z,946.74
2022-10-22T00:14:08.607Z,946.73
2022-10-22T00:14:18.612Z,946.73
2022-10-22T00:14:28.609Z,946.74
2022-10-22T00:14:38.615Z,946.74
2022-10-22T00:14:48.612Z,946.74
2022-10-22T00:14:58.611Z,946.74
2022-10-22T00:15:08.614Z,946.73
2022-10-22T00:15:18.614Z,946.74
2022-10-22T00:15:28.612Z,946.74
2022-10-22T00:15:38.618Z,946.74
2022-10-22T00:15:48.640Z,946.74
2022-10-22T00:15:58.617Z,946.73
2022-10-22T00:16:08.617Z,946.73
2022-10-22T00:16:18.617Z,946.73
2022-10-22T00:16:28.618Z,946.73
2022-10-22T00:16:38.617Z,946.72
2022-10-22T00:16:48.618Z,946.72
2022-10-22T00:16:58.635Z,946.72
2022-10-22T00:17:11.453Z,946.72
2022-10-22T00:17:18.623Z,946.71
2022-10-22T00:17:28.626Z,946.71
2022-10-22T00:17:39.102Z,946.70
2022-10-22T00:17:48.626Z,946.70
2022-10-22T00:17:58.628Z,946.69
2022-10-22T00:18:08.626Z,946.69
2022-10-22T00:18:18.626Z,946.68
2022-10-22T00:18:28.632Z,946.67
2022-10-22T00:18:38.630Z,946.67
2022-10-22T00:18:48.632Z,946.65
2022-10-22T00:18:58.633Z,946.64
2022-10-22T00:19:08.634Z,946.63
2022-10-22T00:19:18.632Z,946.62
2022-10-22T00:19:28.634Z,946.62
2022-10-22T00:19:38.641Z,946.61
2022-10-22T00:19:48.661Z,946.59
2022-10-22T00:19:58.636Z,946.58
2022-10-22T00:20:08.637Z,946.58
2022-10-22T00:20:18.639Z,946.57
2022-10-22T00:20:28.638Z,946.56
2022-10-22T00:20:38.641Z,946.56
2022-10-22T00:20:48.640Z,946.55
2022-10-22T00:20:58.644Z,946.55
2022-10-22T00:21:08.651Z,946.54
2022-10-22T00:21:18.647Z,946.55
2022-10-22T00:21:28.646Z,946.55
2022-10-22T00:21:38.647Z,946.55
2022-10-22T00:21:48.648Z,946.55
2022-10-22T00:21:58.693Z,946.55
2022-10-22T00:22:08.648Z,946.55
2022-10-22T00:22:18.649Z,946.56
2022-10-22T00:22:28.649Z,946.56
2022-10-22T00:22:38.657Z,946.56
2022-10-22T00:22:48.702Z,946.56
2022-10-22T00:22:58.666Z,946.56
2022-10-22T00:23:08.654Z,946.56
2022-10-22T00:23:18.654Z,946.56
2022-10-22T00:23:28.655Z,946.57
2022-10-22T00:23:38.658Z,946.57
2022-10-22T00:23:48.656Z,946.58
2022-10-22T00:23:58.659Z,946.59
2022-10-22T00:24:08.660Z,946.60
2022-10-22T00:24:18.660Z,946.60
2022-10-22T00:24:28.662Z,946.61
2022-10-22T00:24:38.662Z,946.62
2022-10-22T00:24:48.662Z,946.62
2022-10-22T00:24:58.661Z,946.63
2022-10-22T00:25:08.662Z,946.64
2022-10-22T00:25:18.663Z,946.64
2022-10-22T00:25:28.663Z,946.64
2022-10-22T00:25:38.673Z,946.64
2022-10-22T00:25:48.665Z,946.65
2022-10-22T00:25:58.668Z,946.65
2022-10-22T00:26:08.687Z,946.65
2022-10-22T00:26:18.669Z,946.65
2022-10-22T00:26:28.666Z,946.66
2022-10-22T00:26:38.669Z,946.66
2022-10-22T00:26:48.671Z,946.66
2022-10-22T00:26:58.670Z,946.66
2022-10-22T00:27:08.674Z,946.67
2022-10-22T00:27:18.672Z,946.67
2022-10-22T00:27:28.674Z,946.67
2022-10-22T00:27:38.835Z,946.67
2022-10-22T00:27:48.675Z,946.67
2022-10-22T00:27:58.677Z,946.67
2022-10-22T00:28:08.658Z,946.67
2022-10-22T00:28:18.679Z,946.67
2022-10-22T00:28:28.681Z,946.67
2022-10-22T00:28:38.678Z,946.67
2022-10-22T00:28:48.680Z,946.67
2022-10-22T00:28:58.680Z,946.67
2022-10-22T00:29:08.678Z,946.66
2022-10-22T00:29:18.684Z,946.66
2022-10-22T00:29:28.680Z,946.66
2022-10-22T00:29:38.666Z,946.66
2022-10-22T00:29:48.683Z,946.66
2022-10-22T00:29:58.684Z,946.66
2022-10-22T00:30:08.690Z,946.65
2022-10-22T00:30:18.699Z,946.65
2022-10-22T00:30:28.688Z,946.65
2022-10-22T00:30:38.669Z,946.65
2022-10-22T00:30:48.688Z,946.64
2022-10-22T00:30:58.692Z,946.64
2022-10-22T00:31:08.692Z,946.64
2022-10-22T00:31:18.673Z,946.63
2022-10-22T00:31:28.697Z,946.63
2022-10-22T00:31:38.693Z,946.62
2022-10-22T00:31:48.771Z,946.63
2022-10-22T00:31:58.706Z,946.62
2022-10-22T00:32:08.700Z,946.62
2022-10-22T00:32:18.703Z,946.61
2022-10-22T00:32:28.702Z,946.61
2022-10-22T00:32:39.044Z,946.61
2022-10-22T00:32:48.703Z,946.61
2022-10-22T00:32:58.683Z,946.61
2022-10-22T00:33:08.705Z,946.60
2022-10-22T00:33:18.703Z,946.60
2022-10-22T00:33:28.704Z,946.61
2022-10-22T00:33:38.703Z,946.60
2022-10-22T00:33:48.705Z,946.61
2022-10-22T00:33:58.705Z,946.60
2022-10-22T00:34:08.706Z,946.60
2022-10-22T00:34:18.705Z,946.60
2022-10-22T00:34:28.711Z,946.60
2022-10-22T00:34:38.746Z,946.60
2022-10-22T00:34:48.709Z,946.59
2022-10-22T00:34:58.694Z,946.59
2022-10-22T00:35:08.712Z,946.59
2022-10-22T00:35:18.713Z,946.59
2022-10-22T00:35:28.715Z,946.59
2022-10-22T00:35:38.714Z,946.59
2022-10-22T00:35:48.713Z,946.59
2022-10-22T00:35:58.716Z,946.60
2022-10-22T00:36:08.717Z,946.60
2022-10-22T00:36:18.718Z,946.60
2022-10-22T00:36:28.715Z,946.60
2022-10-22T00:36:38.716Z,946.61
2022-10-22T00:36:48.718Z,946.61
2022-10-22T00:36:58.716Z,946.61
2022-10-22T00:37:08.720Z,946.61
2022-10-22T00:37:18.721Z,946.62
2022-10-22T00:37:28.720Z,946.62
2022-10-22T00:37:38.720Z,946.63
2022-10-22T00:37:48.722Z,946.63
2022-10-22T00:37:58.723Z,946.63
2022-10-22T00:38:08.732Z,946.64
2022-10-22T00:38:18.728Z,946.64
2022-10-22T00:38:28.726Z,946.64
2022-10-22T00:38:38.729Z,946.65
2022-10-22T00:38:48.727Z,946.65
2022-10-22T00:38:58.729Z,946.64
2022-10-22T00:39:08.730Z,946.64
2022-10-22T00:39:18.730Z,946.65
2022-10-22T00:39:28.732Z,946.65
2022-10-22T00:39:38.737Z,946.65
2022-10-22T00:39:48.736Z,946.65
2022-10-22T00:39:58.736Z,946.65
2022-10-22T00:40:08.736Z,946.66
2022-10-22T00:40:18.739Z,946.65
2022-10-22T00:40:28.738Z,946.65
2022-10-22T00:40:38.743Z,946.65
2022-10-22T00:40:48.782Z,946.65
2022-10-22T00:40:58.802Z,946.64
2022-10-22T00:41:08.742Z,946.64
2022-10-22T00:41:18.741Z,946.64
2022-10-22T00:41:28.744Z,946.63
2022-10-22T00:41:38.744Z,946.63
2022-10-22T00:41:48.745Z,946.63
2022-10-22T00:41:58.744Z,946.62
2022-10-22T00:42:08.747Z,946.62
2022-10-22T00:42:18.752Z,946.62
2022-10-22T00:42:28.749Z,946.61
2022-10-22T00:42:39.153Z,946.61
2022-10-22T00:42:48.749Z,946.61
2022-10-22T00:42:58.751Z,946.61
2022-10-22T00:43:08.763Z,946.60
2022-10-22T00:43:18.752Z,946.60
2022-10-22T00:43:28.752Z,946.60
2022-10-22T00:43:38.755Z,946.59
2022-10-22T00:43:48.753Z,946.59
2022-10-22T00:43:58.754Z,946.59
2022-10-22T00:44:08.755Z,946.59
2022-10-22T00:44:18.756Z,946.59
2022-10-22T00:44:28.757Z,946.59
2022-10-22T00:44:38.758Z,946.59
2022-10-22T00:44:48.741Z,946.59
2022-10-22T00:44:58.759Z,946.60
2022-10-22T00:45:08.762Z,946.60
2022-10-22T00:45:18.760Z,946.60
2022-10-22T00:45:28.761Z,946.61
2022-10-22T00:45:38.763Z,946.61
2022-10-22T00:45:48.764Z,946.62
2022-10-22T00:45:58.767Z,946.62
2022-10-22T00:46:08.764Z,946.63
2022-10-22T00:46:18.768Z,946.64
2022-10-22T00:46:28.768Z,946.64
2022-10-22T00:46:38.768Z,946.65
2022-10-22T00:46:48.771Z,946.66
2022-10-22T00:46:58.769Z,946.67
2022-10-22T00:47:08.772Z,946.67
2022-10-22T00:47:18.771Z,946.68
2022-10-22T00:47:28.773Z,946.69
2022-10-22T00:47:38.773Z,946.69
2022-10-22T00:47:48.773Z,946.70
2022-10-22T00:47:58.775Z,946.70
2022-10-22T00:48:08.775Z,946.70
2022-10-22T00:48:18.774Z,946.71
2022-10-22T00:48:28.776Z,946.72
2022-10-22T00:48:38.777Z,946.72
2022-10-22T00:48:48.777Z,946.73
2022-10-22T00:48:58.779Z,946.73
2022-10-22T00:49:08.781Z,946.73
2022-10-22T00:49:18.782Z,946.74
2022-10-22T00:49:28.780Z,946.74
2022-10-22T00:49:38.781Z,946.74
2022-10-22T00:49:48.782Z,946.75
2022-10-22T00:49:58.857Z,946.75
2022-10-22T00:50:08.786Z,946.75
2022-10-22T00:50:18.784Z,946.75
2022-10-22T00:50:28.783Z,946.75
2022-10-22T00:50:38.783Z,946.76
2022-10-22T00:50:48.786Z,946.75
2022-10-22T00:50:58.785Z,946.76
2022-10-22T00:51:08.784Z,946.76
2022-10-22T00:51:18.787Z,946.76
2022-10-22T00:51:28.787Z,946.76
2022-10-22T00:51:38.786Z,946.76
2022-10-22T00:51:48.788Z,946.77
2022-10-22T00:51:58.791Z,946.77
2022-10-22T00:52:08.793Z,946.77
2022-10-22T00:52:18.794Z,946.77
2022-10-22T00:52:28.793Z,946.77
2022-10-22T00:52:39.247Z,946.78
2022-10-22T00:52:48.779Z,946.78
2022-10-22T00:52:58.794Z,946.78
2022-10-22T00:53:08.796Z,946.78
2022-10-22T00:53:18.796Z,946.78
2022-10-22T00:53:28.799Z,946.78
2022-10-22T00:53:38.804Z,946.79
2022-10-22T00:53:48.802Z,946.78
2022-10-22T00:53:58.802Z,946.78
2022-10-22T00:54:08.801Z,946.78
2022-10-22T00:54:18.807Z,946.78
2022-10-22T00:54:28.787Z,946.78
2022-10-22T00:54:38.804Z,946.78
2022-10-22T00:54:48.805Z,946.78
2022-10-22T00:54:58.793Z,946.78
2022-10-22T00:55:08.807Z,946.78
2022-10-22T00:55:18.807Z,946.78
2022-10-22T00:55:28.814Z,946.77
2022-10-22T00:55:38.809Z,946.77
2022-10-22T00:55:48.810Z,946.76
2022-10-22T00:55:58.816Z,946.76
2022-10-22T00:56:08.811Z,946.76
2022-10-22T00:56:18.811Z,946.75
2022-10-22T00:56:28.811Z,946.75
2022-10-22T00:56:38.814Z,946.74
2022-10-22T00:56:48.828Z,946.74
2022-10-22T00:56:58.816Z,946.74
2022-10-22T00:57:08.819Z,946.73
2022-10-22T00:57:18.818Z,946.73
2022-10-22T00:57:28.816Z,946.72
2022-10-22T00:57:38.819Z,946.72
2022-10-22T00:57:48.822Z,946.72
2022-10-22T00:57:58.821Z,946.72
2022-10-22T00:58:08.821Z,946.72
2022-10-22T00:58:18.821Z,946.72
2022-10-22T00:58:28.821Z,946.72
2022-10-22T00:58:38.822Z,946.72
2022-10-22T00:58:48.825Z,946.73
2022-10-22T00:58:58.879Z,946.73
2022-10-22T00:59:18.826Z,946.73
2022-10-22T00:59:28.827Z,946.73
2022-10-22T00:59:38.827Z,946.73
2022-10-22T00:59:48.827Z,946.73
2022-10-22T00:59:58.826Z,946.73
2022-10-22T01:00:08.830Z,946.74
2022-10-22T01:00:18.829Z,946.74
2022-10-22T01:00:28.871Z,946.75
2022-10-22T01:00:38.867Z,946.75
2022-10-22T01:00:48.863Z,946.76
2022-10-22T01:00:58.874Z,946.76
2022-10-22T01:01:08.882Z,946.77
2022-10-22T01:01:18.851Z,946.77
2022-10-22T01:01:28.834Z,946.78
2022-10-22T01:01:38.836Z,946.78
2022-10-22T01:01:48.836Z,946.79
2022-10-22T01:01:58.839Z,946.80
2022-10-22T01:02:08.838Z,946.81
2022-10-22T01:02:18.838Z,946.82
2022-10-22T01:02:28.839Z,946.84
2022-10-22T01:02:39.128Z,946.85
2022-10-22T01:02:48.839Z,946.87
2022-10-22T01:02:58.839Z,946.88
2022-10-22T01:03:08.844Z,946.90
2022-10-22T01:03:18.843Z,946.91
2022-10-22T01:03:28.842Z,946.93
2022-10-22T01:03:38.842Z,946.94
2022-10-22T01:03:48.845Z,946.96
2022-10-22T01:03:58.843Z,946.97
2022-10-22T01:04:08.844Z,946.98
2022-10-22T01:04:18.845Z,946.99
2022-10-22T01:04:28.843Z,946.99
2022-10-22T01:04:38.849Z,947.00
2022-10-22T01:04:48.848Z,947.00
2022-10-22T01:04:58.854Z,947.01
2022-10-22T01:05:08.851Z,947.01
2022-10-22T01:05:18.853Z,947.00
2022-10-22T01:05:28.853Z,947.00
2022-10-22T01:05:38.855Z,946.99
2022-10-22T01:05:48.855Z,946.99
2022-10-22T01:05:58.857Z,946.98
2022-10-22T01:06:08.857Z,946.97
2022-10-22T01:06:18.856Z,946.96
2022-10-22T01:06:28.864Z,946.95
2022-10-22T01:06:38.857Z,946.94
2022-10-22T01:06:48.860Z,946.93
2022-10-22T01:06:58.861Z,946.92
2022-10-22T01:07:08.865Z,946.91
2022-10-22T01:07:18.888Z,946.90
2022-10-22T01:07:28.864Z,946.89
2022-10-22T01:07:38.863Z,946.88
2022-10-22T01:07:48.866Z,946.87
2022-10-22T01:07:58.907Z,946.86
2022-10-22T01:08:08.890Z,946.86
2022-10-22T01:08:18.870Z,946.85
2022-10-22T01:08:28.871Z,946.85
2022-10-22T01:08:38.912Z,946.84
2022-10-22T01:08:48.905Z,946.84
2022-10-22T01:08:58.888Z,946.84
2022-10-22T01:09:08.917Z,946.83
2022-10-22T01:09:18.877Z,946.83
2022-10-22T01:09:28.875Z,946.82
2022-10-22T01:09:38.859Z,946.82
2022-10-22T01:09:48.879Z,946.82
2022-10-22T01:09:58.879Z,946.81
2022-10-22T01:10:08.881Z,946.81
2022-10-22T01:10:18.879Z,946.81
2022-10-22T01:10:28.883Z,946.80
2022-10-22T01:10:38.883Z,946.80
2022-10-22T01:10:48.884Z,946.80
2022-10-22T01:10:58.883Z,946.79
2022-10-22T01:11:08.868Z,946.79
2022-10-22T01:11:18.909Z,946.79
2022-10-22T01:11:28.886Z,946.78
2022-10-22T01:11:38.889Z,946.78
2022-10-22T01:11:48.891Z,946.77
2022-10-22T01:11:58.889Z,946.77
2022-10-22T01:12:08.891Z,946.76
2022-10-22T01:12:18.890Z,946.76
2022-10-22T01:12:28.890Z,946.75
2022-10-22T01:12:39.230Z,946.75
2022-10-22T01:12:48.899Z,946.74
2022-10-22T01:12:58.893Z,946.74
2022-10-22T01:13:08.895Z,946.73
2022-10-22T01:13:18.893Z,946.73
2022-10-22T01:13:28.895Z,946.73
2022-10-22T01:13:38.894Z,946.72
2022-10-22T01:13:48.896Z,946.72
2022-10-22T01:13:58.906Z,946.72
2022-10-22T01:14:08.896Z,946.72
2022-10-22T01:14:18.900Z,946.71
2022-10-22T01:14:28.901Z,946.71
2022-10-22T01:14:38.906Z,946.72
2022-10-22T01:14:48.903Z,946.72
2022-10-22T01:14:58.904Z,946.71
2022-10-22T01:15:08.905Z,946.72
2022-10-22T01:15:18.909Z,946.71
2022-10-22T01:15:28.905Z,946.72
2022-10-22T01:15:38.908Z,946.72
2022-10-22T01:15:48.907Z,946.72
2022-10-22T01:15:58.912Z,946.72
2022-10-22T01:16:08.910Z,946.73
2022-10-22T01:16:18.911Z,946.73
2022-10-22T01:16:28.914Z,946.74
2022-10-22T01:16:38.913Z,946.75
2022-10-22T01:16:48.915Z,946.75
2022-10-22T01:16:58.917Z,946.76
2022-10-22T01:17:08.955Z,946.76
2022-10-22T01:17:18.923Z,946.77
2022-10-22T01:17:28.923Z,946.78
2022-10-22T01:17:39.142Z,946.78
2022-10-22T01:17:48.924Z,946.79
2022-10-22T01:17:58.925Z,946.80
2022-10-22T01:18:08.923Z,946.80
2022-10-22T01:18:18.926Z,946.81
2022-10-22T01:18:28.927Z,946.81
2022-10-22T01:18:38.926Z,946.82
2022-10-22T01:18:48.927Z,946.82
2022-10-22T01:18:58.930Z,946.82
2022-10-22T01:19:08.930Z,946.83
2022-10-22T01:19:18.933Z,946.83
2022-10-22T01:19:28.933Z,946.83
2022-10-22T01:19:38.934Z,946.84
2022-10-22T01:19:48.934Z,946.84
2022-10-22T01:19:58.935Z,946.84
2022-10-22T01:20:08.937Z,946.84
2022-10-22T01:20:18.937Z,946.85
2022-10-22T01:20:28.942Z,946.85
2022-10-22T01:20:38.938Z,946.85
2022-10-22T01:20:48.939Z,946.85
2022-10-22T01:20:58.944Z,946.85
2022-10-22T01:21:08.939Z,946.85
2022-10-22T01:21:18.938Z,946.86
2022-10-22T01:21:28.945Z,946.86
2022-10-22T01:21:38.941Z,946.86
2022-10-22T01:21:48.943Z,946.86
2022-10-22T01:21:58.943Z,946.86
2022-10-22T01:22:08.946Z,946.86
2022-10-22T01:22:18.945Z,946.86
2022-10-22T01:22:28.945Z,946.86
2022-10-22T01:22:38.948Z,946.86
2022-10-22T01:22:48.929Z,946.86
2022-10-22T01:22:58.953Z,946.86
2022-10-22T01:23:08.950Z,946.85
2022-10-22T01:23:18.948Z,946.85
2022-10-22T01:23:28.950Z,946.85
2022-10-22T01:23:38.953Z,946.85
2022-10-22T01:23:48.936Z,946.84
2022-10-22T01:23:58.955Z,946.84
2022-10-22T01:24:08.952Z,946.84
2022-10-22T01:24:18.955Z,946.83
2022-10-22T01:24:28.957Z,946.82
2022-10-22T01:24:38.956Z,946.82
2022-10-22T01:24:48.958Z,946.81
2022-10-22T01:24:58.960Z,946.80
2022-10-22T01:25:08.960Z,946.80
2022-10-22T01:25:18.960Z,946.79
2022-10-22T01:25:28.962Z,946.79
2022-10-22T01:25:38.963Z,946.78
2022-10-22T01:25:48.963Z,946.77
2022-10-22T01:25:58.964Z,946.77
2022-10-22T01:26:09.022Z,946.77
2022-10-22T01:26:18.977Z,946.77
2022-10-22T01:26:28.971Z,946.76
2022-10-22T01:26:38.970Z,946.76
2022-10-22T01:26:48.968Z,946.76
2022-10-22T01:26:58.969Z,946.76
2022-10-22T01:27:08.980Z,946.75
2022-10-22T01:27:18.970Z,946.76
2022-10-22T01:27:28.970Z,946.75
2022-10-22T01:27:39.259Z,946.76
2022-10-22T01:27:48.973Z,946.76
2022-10-22T01:27:58.974Z,946.76
2022-10-22T01:28:08.974Z,946.76
2022-10-22T01:28:18.975Z,946.76
2022-10-22T01:28:28.959Z,946.77
2022-10-22T01:28:38.981Z,946.77
2022-10-22T01:28:48.977Z,946.77
2022-10-22T01:28:58.975Z,946.77
2022-10-22T01:29:08.974Z,946.77
2022-10-22T01:29:18.979Z,946.77
2022-10-22T01:29:28.980Z,946.78
2022-10-22T01:29:38.984Z,946.78
2022-10-22T01:29:48.981Z,946.78
2022-10-22T01:29:58.980Z,946.78
2022-10-22T01:30:08.964Z,946.78
2022-10-22T01:30:18.984Z,946.79
2022-10-22T01:30:28.984Z,946.79
2022-10-22T01:30:38.992Z,946.79
2022-10-22T01:30:48.988Z,946.79
2022-10-22T01:30:58.986Z,946.79
2022-10-22T01:31:08.986Z,946.79
2022-10-22T01:31:18.989Z,946.79
2022-10-22T01:31:28.988Z,946.79
2022-10-22T01:31:39.012Z,946.79
2022-10-22T01:31:48.992Z,946.79
2022-10-22T01:31:58.994Z,946.79
2022-10-22T01:32:09.009Z,946.79
2022-10-22T01:32:18.995Z,946.78
2022-10-22T01:32:28.994Z,946.79
2022-10-22T01:32:38.996Z,946.78
2022-10-22T01:32:48.995Z,946.78
2022-10-22T01:32:59.000Z,946.78
2022-10-22T01:33:08.998Z,946.77
2022-10-22T01:33:19.000Z,946.77
2022-10-22T01:33:29.001Z,946.77
2022-10-22T01:33:39.004Z,946.76
2022-10-22T01:33:49.005Z,946.76
2022-10-22T01:33:59.011Z,946.76
2022-10-22T01:34:09.005Z,946.76
2022-10-22T01:34:19.005Z,946.75
2022-10-22T01:34:29.007Z,946.75
2022-10-22T01:34:39.008Z,946.75
2022-10-22T01:34:49.007Z,946.75
2022-10-22T01:34:59.011Z,946.74
2022-10-22T01:35:09.011Z,946.74
2022-10-22T01:35:19.012Z,946.74
2022-10-22T01:35:29.040Z,946.74
2022-10-22T01:35:39.001Z,946.74
2022-10-22T01:35:49.012Z,946.74
2022-10-22T01:35:59.016Z,946.74
2022-10-22T01:36:09.015Z,946.74
2022-10-22T01:36:19.017Z,946.74
2022-10-22T01:36:29.016Z,946.74
2022-10-22T01:36:39.017Z,946.73
2022-10-22T01:36:49.018Z,946.73
2022-10-22T01:36:59.021Z,946.73
2022-10-22T01:37:09.033Z,946.73
2022-10-22T01:37:19.020Z,946.73
2022-10-22T01:37:29.022Z,946.73
2022-10-22T01:37:39.467Z,946.73
2022-10-22T01:37:49.027Z,946.73
2022-10-22T01:37:59.032Z,946.73
2022-10-22T01:38:09.023Z,946.72
2022-10-22T01:38:19.024Z,946.73
2022-10-22T01:38:29.027Z,946.72
2022-10-22T01:38:39.032Z,946.72
2022-10-22T01:38:49.029Z,946.72
2022-10-22T01:38:59.030Z,946.71
2022-10-22T01:39:09.032Z,946.72
2022-10-22T01:39:19.032Z,946.72
2022-10-22T01:39:29.037Z,946.71
2022-10-22T01:39:39.033Z,946.71
2022-10-22T01:39:49.036Z,946.71
2022-10-22T01:39:59.035Z,946.72
2022-10-22T01:40:09.036Z,946.71
2022-10-22T01:40:19.038Z,946.71
2022-10-22T01:40:29.040Z,946.71
2022-10-22T01:40:39.041Z,946.71
2022-10-22T01:40:49.040Z,946.71
2022-10-22T01:40:59.050Z,946.71
2022-10-22T01:41:09.046Z,946.71
2022-10-22T01:41:19.045Z,946.71
2022-10-22T01:41:29.045Z,946.71
2022-10-22T01:41:39.047Z,946.71
2022-10-22T01:41:49.031Z,946.71
2022-10-22T01:41:59.048Z,946.71
2022-10-22T01:42:09.059Z,946.71
2022-10-22T01:42:19.051Z,946.71
2022-10-22T01:42:29.050Z,946.71
2022-10-22T01:42:39.033Z,946.71
2022-10-22T01:42:49.054Z,946.71
2022-10-22T01:42:59.052Z,946.71
2022-10-22T01:43:09.034Z,946.71
2022-10-22T01:43:19.054Z,946.71
2022-10-22T01:43:29.057Z,946.70
2022-10-22T01:43:39.055Z,946.70
2022-10-22T01:43:49.057Z,946.70
2022-10-22T01:43:59.060Z,946.70
2022-10-22T01:44:09.061Z,946.69
2022-10-22T01:44:19.058Z,946.69
2022-10-22T01:44:29.087Z,946.68
2022-10-22T01:44:39.071Z,946.68
2022-10-22T01:44:49.061Z,946.68
2022-10-22T01:44:59.063Z,946.68
2022-10-22T01:45:09.063Z,946.68
2022-10-22T01:45:19.066Z,946.67
2022-10-22T01:45:29.062Z,946.67
2022-10-22T01:45:39.064Z,946.66
2022-10-22T01:45:49.066Z,946.66
2022-10-22T01:45:59.066Z,946.65
2022-10-22T01:46:09.066Z,946.65
2022-10-22T01:46:19.069Z,946.64
2022-10-22T01:46:29.065Z,946.64
2022-10-22T01:46:39.068Z,946.64
2022-10-22T01:46:49.069Z,946.64
2022-10-22T01:46:59.070Z,946.63
2022-10-22T01:47:09.071Z,946.63
2022-10-22T01:47:19.081Z,946.63
2022-10-22T01:47:29.073Z,946.63
2022-10-22T01:47:39.405Z,946.62
2022-10-22T01:47:49.075Z,946.62
2022-10-22T01:47:59.075Z,946.62
2022-10-22T01:48:09.077Z,946.62
2022-10-22T01:48:19.079Z,946.61
2022-10-22T01:48:29.080Z,946.61
2022-10-22T01:48:39.081Z,946.61
2022-10-22T01:48:49.081Z,946.60
2022-10-22T01:48:59.082Z,946.60
2022-10-22T01:49:09.084Z,946.60
2022-10-22T01:49:19.087Z,946.59
2022-10-22T01:49:29.083Z,946.59
2022-10-22T01:49:39.086Z,946.58
2022-10-22T01:49:49.085Z,946.58
2022-10-22T01:49:59.088Z,946.58
2022-10-22T01:50:09.089Z,946.57
2022-10-22T01:50:19.089Z,946.57
2022-10-22T01:50:29.090Z,946.56
2022-10-22T01:50:39.091Z,946.56
2022-10-22T01:50:49.090Z,946.55
2022-10-22T01:50:59.099Z,946.54
2022-10-22T01:51:09.096Z,946.54
2022-10-22T01:51:19.094Z,946.54
2022-10-22T01:51:29.094Z,946.53
2022-10-22T01:51:39.097Z,946.53
2022-10-22T01:51:49.097Z,946.52
2022-10-22T01:51:59.100Z,946.52
2022-10-22T01:52:09.096Z,946.52
2022-10-22T01:52:19.100Z,946.51
2022-10-22T01:52:29.100Z,946.51
2022-10-22T01:52:39.100Z,946.51
2022-10-22T01:52:49.099Z,946.51
2022-10-22T01:52:59.101Z,946.51
2022-10-22T01:53:09.101Z,946.50
2022-10-22T01:53:19.102Z,946.50
2022-10-22T01:53:29.100Z,946.50
2022-10-22T01:53:39.126Z,946.50
2022-10-22T01:53:49.106Z,946.50
2022-10-22T01:53:59.104Z,946.50
2022-10-22T01:54:09.106Z,946.49
2022-10-22T01:54:19.108Z,946.49
2022-10-22T01:54:29.106Z,946.49
2022-10-22T01:54:39.107Z,946.49
2022-10-22T01:54:49.107Z,946.49
2022-10-22T01:54:59.113Z,946.49
2022-10-22T01:55:09.111Z,946.48
2022-10-22T01:55:19.112Z,946.48
2022-10-22T01:55:29.112Z,946.48
2022-10-22T01:55:39.115Z,946.48
2022-10-22T01:55:49.116Z,946.48
2022-10-22T01:55:59.098Z,946.48
2022-10-22T01:56:09.116Z,946.48
2022-10-22T01:56:19.118Z,946.48
2022-10-22T01:56:29.120Z,946.48
2022-10-22T01:56:39.122Z,946.48
2022-10-22T01:56:49.122Z,946.47
2022-10-22T01:56:59.125Z,946.47
2022-10-22T01:57:09.125Z,946.47
2022-10-22T01:57:19.127Z,946.47
2022-10-22T01:57:29.126Z,946.47
2022-10-22T01:57:39.549Z,946.46
2022-10-22T01:57:49.131Z,946.46
2022-10-22T01:57:59.130Z,946.46
2022-10-22T01:58:09.131Z,946.46
2022-10-22T01:58:19.130Z,946.45
2022-10-22T01:58:29.131Z,946.46
2022-10-22T01:58:39.133Z,946.45
2022-10-22T01:58:49.132Z,946.45
2022-10-22T01:58:59.133Z,946.45
2022-10-22T01:59:09.135Z,946.45
2022-10-22T01:59:19.135Z,946.44
2022-10-22T01:59:29.134Z,946.44
2022-10-22T01:59:39.136Z,946.44
2022-10-22T01:59:49.137Z,946.44
2022-10-22T01:59:59.140Z,946.44
2022-10-22T02:00:09.144Z,946.44
2022-10-22T02:00:19.142Z,946.44
2022-10-22T02:00:29.196Z,946.44
2022-10-22T02:00:39.168Z,946.44
2022-10-22T02:00:49.189Z,946.44
2022-10-22T02:00:59.175Z,946.44
2022-10-22T02:01:09.182Z,946.44
2022-10-22T02:01:19.149Z,946.44
2022-10-22T02:01:29.149Z,946.44
2022-10-22T02:01:39.156Z,946.44
2022-10-22T02:01:49.151Z,946.44
2022-10-22T02:01:59.153Z,946.44
2022-10-22T02:02:09.162Z,946.44
2022-10-22T02:02:19.161Z,946.44
2022-10-22T02:02:29.180Z,946.44
2022-10-22T02:02:39.217Z,946.44
2022-10-22T02:02:49.160Z,946.44
2022-10-22T02:02:59.162Z,946.44
2022-10-22T02:03:09.160Z,946.43
2022-10-22T02:03:22.796Z,946.44
2022-10-22T02:03:29.161Z,946.44
2022-10-22T02:03:39.162Z,946.43
2022-10-22T02:03:49.162Z,946.43
2022-10-22T02:03:59.164Z,946.43
2022-10-22T02:04:09.164Z,946.43
2022-10-22T02:04:19.164Z,946.43
2022-10-22T02:04:29.146Z,946.44
2022-10-22T02:04:39.167Z,946.43
2022-10-22T02:04:49.167Z,946.43
2022-10-22T02:04:59.166Z,946.44